METAR Data
IDs: Format: Raw Decoded Include TAF

Data at: 0937 UTC 18 Jan 2022

KHEI 180853Z AUTO 26013KT 10SM BKN100 05/M02 A2952 RMK AO2 SLP003 T00501022 56010
KHEI 180753Z AUTO 27012KT 10SM FEW070 FEW085 BKN110 06/M02 A2952 RMK AO2 SLP004 T00561022
KHEI 180653Z AUTO 30004KT 10SM CLR 02/M03 A2954 RMK AO2 SLP015 T00221033 401061028
KHEI 180553Z AUTO 29005KT 10SM CLR 03/M03 A2955 RMK AO2 SLP017 T00281028 10033 20000 56023
KHEI 180453Z AUTO 00000KT 10SM CLR 01/M03 A2957 RMK AO2 SLP028 T00111028
KHEI 180353Z AUTO 26006KT 10SM CLR 01/M03 A2960 RMK AO2 SLP043 T00111028
KHEI 180253Z AUTO 29004KT 10SM CLR 02/M02 A2962 RMK AO2 SLP053 T00221022 58010
KHEI 180153Z AUTO 29005KT 10SM CLR 03/M02 A2963 RMK AO2 SLP057 T00281022
KHEI 180053Z AUTO 27006KT 10SM CLR 01/M03 A2965 RMK AO2 SLP064 T00111028
KHEI 172353Z AUTO 00000KT 10SM CLR 03/M02 A2966 RMK AO2 SLP061 T00281022 10106 20022 58006
KHEI 172253Z AUTO 28008KT 10SM CLR 05/M01 A2966 RMK AO2 SLP061 T00501011
KHEI 172153Z AUTO 28012KT 10SM CLR 11/M01 A2968 RMK AO2 SLP060 T01061006
KHEI 172053Z AUTO 28011KT 10SM SCT095 09/M01 A2967 RMK AO2 SLP062 T00941006 58015
KHEI 171953Z AUTO 28012KT 10SM CLR 09/M01 A2969 RMK AO2 SLP069 T00891006
KHEI 171853Z AUTO 28011KT 10SM CLR 09/M01 A2971 RMK AO2 SLP079 T00891011
KHEI 171753Z AUTO 28013KT 10SM CLR 08/M01 A2972 RMK AO2 SLP083 T00831011 10083 21028 58001
KHEI 171653Z AUTO 28010KT 10SM CLR 06/M02 A2973 RMK AO2 SLP090 T00611017
KHEI 171553Z AUTO 29011KT 10SM CLR 02/M03 A2974 RMK AO2 SLP096 T00221028
KHEI 171453Z AUTO 29007KT 10SM CLR M01/M04 A2972 RMK AO2 SLP095 T10111044 55003
KHEI 171353Z AUTO 30008KT 10SM CLR M02/M05 A2972 RMK AO2 SLP093 T10171050
KHEI 171253Z AUTO 26003KT 10SM CLR M01/M05 A2973 RMK AO2 SLP094 T10111050
KHEI 171153Z AUTO 00000KT 10SM OVC075 01/M03 A2974 RMK AO2 SLP092 T00111033 10017 21044 56019
KHEI 171053Z AUTO 22004KT 10SM OVC070 01/M03 A2975 RMK AO2 SLP092 T00111028
KHEI 170953Z AUTO 22005KT 10SM OVC070 01/M03 A2977 RMK AO2 SLP100 T00111033
KHEI 170853Z AUTO 00000KT 10SM OVC070 00/M03 A2980 RMK AO2 SLP108 T00001033 58030
KHEI 170753Z AUTO 21003KT 10SM SCT085 OVC110 M01/M04 A2983 RMK AO2 SLP122 T10061044
KHEI 170653Z AUTO 00000KT 10SM CLR M03/M06 A2986 RMK AO2 SLP134 T10281056 400611050
KHEI 170553Z AUTO 00000KT 10SM CLR M03/M06 A2989 RMK AO2 SLP146 T10281056 10000 21050 56021
KHEI 170453Z AUTO 29006KT 10SM CLR M04/M06 A2991 RMK AO2 SLP153 T10391056
KHEI 170353Z AUTO 30004KT 10SM CLR M04/M06 A2992 RMK AO2 SLP160 T10391056
KHEI 170253Z AUTO 30004KT 10SM CLR M04/M06 A2996 RMK AO2 SLP173 T10391061 58005
KHEI 170153Z AUTO 29004KT 10SM CLR M03/M05 A2998 RMK AO2 SLP178 T10281050
KHEI 170053Z AUTO 31005KT 10SM CLR M02/M05 A2999 RMK AO2 SLP179 T10171050
KHEI 162353Z AUTO 29009KT 10SM CLR 00/M04 A2998 RMK AO2 SLP175 T00001044 10061 20000 58005
KHEI 162253Z AUTO 30012KT 10SM CLR 04/M04 A2999 RMK AO2 SLP176 T00391039
KHEI 162153Z AUTO 32014KT 10SM CLR 06/M04 A3000 RMK AO2 PK WND 32028/2055 SLP178 T00561044